Aviation

Port-au-Prince

FTHA31 MTPP 211800
TAF MTPP 211705Z 2118/2218 30008KT 9000 SCT030
PROB40 TEMPO 2200/2204 09012KT 4500 SHRA SCT024CB BKN040
BECMG 2208/2212 VRB02KT 9000 FEW020
BECMG 2214/2218 09012KT=
NNNN


Cap-Haïtien

FTHA31 MTCH 211800
TAF MTCH 211709Z 2118/2218 04010KT 9000 FEW024 SCT030
PROB30 TEMPO 2122/2202 4500 SHRA SCT022CB BKN040
BECMG 2204/2208 VRB02KT 9000 FEW016 SCT020
BECMG 2214/2218 01012KT=
NNNN